Time;durP1;ratioP1;P1;durP2;ratioP2;P2;SDS_P1;SDS_P2;PMS_P1;PMS_P2;Temp;Humidity;BMP_temperature;BMP_pressure;BME280_temperature;BME280_humidity;BME280_pressure;Samples;Min_cycle;Max_cycle;Signal;HPM_P1;HPM_P2
2022/10/04 00:01:52;;;;;;;8.40;4.40;;;;;;;9.91;100.00;98161.20;1809579;77;21054;-84
2022/10/04 00:04:25;;;;;;;7.12;3.80;;;;;;;9.87;100.00;98150.66;1804886;78;21548;-87
2022/10/04 00:07:06;;;;;;;7.10;3.50;;;;;;;9.87;100.00;98141.19;1818726;76;21454;-84
2022/10/04 00:10:14;;;;;;;13.18;4.05;;;;;;;9.83;100.00;98154.46;1811549;77;21051;-86
2022/10/04 00:13:03;;;;;;;;;;;;;;;9.81;100.00;98153.09;1779993;79;21154;-83
2022/10/04 00:15:38;;;;;;;7.75;3.17;;;;;;;9.75;100.00;98155.00;1817119;77;20319;-85
2022/10/04 00:18:15;;;;;;;6.00;2.92;;;;;;;9.74;100.00;98154.73;1826656;76;20984;-84
2022/10/04 00:20:52;;;;;;;7.37;2.87;;;;;;;9.74;100.00;98154.73;1800514;77;21146;-84
2022/10/04 00:23:29;;;;;;;7.72;3.45;;;;;;;9.72;100.00;98154.17;1739196;80;20981;-88
2022/10/04 00:26:25;;;;;;;9.30;3.58;;;;;;;9.72;100.00;98147.95;1806351;77;22025;-90
2022/10/04 00:28:51;;;;;;;5.03;3.37;;;;;;;9.69;100.00;98147.15;1794602;78;21026;-89
2022/10/04 00:31:25;;;;;;;6.90;3.37;;;;;;;9.67;100.00;98151.48;1815802;77;20957;-80
2022/10/04 00:34:11;;;;;;;11.33;2.95;;;;;;;9.66;100.00;98141.75;1829311;77;21057;-76
2022/10/04 00:36:47;;;;;;;7.40;3.90;;;;;;;9.69;100.00;98146.61;1809511;77;21050;-82
2022/10/04 00:39:15;;;;;;;11.55;4.10;;;;;;;9.65;100.00;98140.64;1821552;77;21137;-83
2022/10/04 00:41:59;;;;;;;8.43;4.30;;;;;;;9.65;100.00;98136.04;1810166;78;20995;-85
2022/10/04 00:45:00;;;;;;;8.60;4.17;;;;;;;9.64;100.00;98133.06;1810295;78;21459;-84
2022/10/04 00:47:49;;;;;;;10.25;4.42;;;;;;;9.67;100.00;98138.50;1811079;78;21042;-87
2022/10/04 00:50:36;;;;;;;;;;;;;;;9.68;100.00;98138.22;1813876;78;21027;-85
2022/10/04 00:53:03;;;;;;;8.43;3.98;;;;;;;9.69;100.00;98143.09;1810814;79;21177;-86
2022/10/04 00:55:39;;;;;;;8.30;4.37;;;;;;;9.67;100.00;98139.31;1810759;78;21086;-87
2022/10/04 00:58:16;;;;;;;15.60;5.75;;;;;;;9.69;100.00;98136.33;1808944;77;20999;-84
2022/10/04 01:00:42;;;;;;;12.53;5.47;;;;;;;9.68;100.00;98138.22;1777972;80;21023;-85
2022/10/04 01:03:12;;;;;;;10.68;5.12;;;;;;;9.70;100.00;98140.11;1783670;79;20899;-86
2022/10/04 01:05:52;;;;;;;10.43;5.60;;;;;;;9.69;100.00;98131.72;1778384;80;22003;-86
2022/10/04 01:08:34;;;;;;;12.50;5.92;;;;;;;9.71;100.00;98135.51;1748302;80;21090;-84
2022/10/04 01:11:04;;;;;;;9.38;4.50;;;;;;;9.71;100.00;98134.97;1784079;79;21035;-86
2022/10/04 01:13:52;;;;;;;10.85;3.85;;;;;;;9.72;100.00;98132.53;1801084;77;21031;-88
2022/10/04 01:16:22;;;;;;;14.03;4.72;;;;;;;9.72;100.00;98132.53;1810586;79;20995;-84
2022/10/04 01:18:48;;;;;;;9.03;4.12;;;;;;;9.73;100.00;98128.73;1811431;77;21296;-84
2022/10/04 01:21:26;;;;;;;12.45;4.78;;;;;;;9.71;100.00;98123.33;1805126;79;20936;-86
2022/10/04 01:23:59;;;;;;;11.78;4.60;;;;;;;9.71;100.00;98125.50;1810630;77;21471;-86
2022/10/04 01:26:31;;;;;;;10.80;4.37;;;;;;;9.69;100.00;98115.48;1770890;79;21017;-84
2022/10/04 01:29:11;;;;;;;9.83;4.42;;;;;;;9.71;100.00;98120.63;1737065;80;21579;-85
2022/10/04 01:31:40;;;;;;;15.65;5.30;;;;;;;9.70;100.00;98110.34;1724439;80;21069;-86
2022/10/04 01:34:06;;;;;;;9.33;4.10;;;;;;;9.71;100.00;98115.22;1755719;80;21445;-86
2022/10/04 01:36:33;;;;;;;8.80;4.08;;;;;;;9.71;100.00;98114.67;1756556;79;21062;-85
2022/10/04 01:38:58;;;;;;;6.62;3.87;;;;;;;9.70;100.00;98123.88;1741150;80;21576;-84
2022/10/04 01:41:39;;;;;;;15.40;4.17;;;;;;;9.69;100.00;98117.39;1728474;81;21634;-87
2022/10/04 01:44:05;;;;;;;6.65;3.75;;;;;;;9.66;100.00;98122.81;1744172;80;21134;-86
2022/10/04 01:46:35;;;;;;;10.95;4.67;;;;;;;9.68;100.00;98116.58;1781903;80;21046;-85
2022/10/04 01:49:11;;;;;;;8.38;3.72;;;;;;;9.70;100.00;98114.95;1786394;78;21011;-84
2022/10/04 01:51:53;;;;;;;8.35;4.00;;;;;;;9.71;100.00;98114.67;1754666;80;20999;-84
2022/10/04 01:54:38;;;;;;;19.17;4.85;;;;;;;9.72;100.00;98118.19;1786754;80;21121;-86
2022/10/04 01:57:23;;;;;;;11.65;4.03;;;;;;;9.73;100.00;98125.22;1732900;80;21131;-85
2022/10/04 01:59:53;;;;;;;9.03;4.08;;;;;;;9.72;100.00;98112.77;1737197;82;20996;-85
2022/10/04 02:02:34;;;;;;;13.68;4.90;;;;;;;9.70;100.00;98110.34;1755055;80;21150;-87
2022/10/04 02:05:00;;;;;;;8.10;4.72;;;;;;;9.67;100.00;98125.78;1753728;80;21012;-87
2022/10/04 02:07:28;;;;;;;10.05;3.83;;;;;;;9.67;100.00;98110.09;1747825;80;20929;-86
2022/10/04 02:09:58;;;;;;;9.83;3.98;;;;;;;9.65;100.00;98098.16;1747853;80;22102;-86
2022/10/04 02:12:24;;;;;;;10.13;3.90;;;;;;;9.63;100.00;98111.70;1755926;80;20972;-87
2022/10/04 02:14:54;;;;;;;16.82;4.30;;;;;;;9.59;100.00;98114.95;1758564;80;21058;-84
2022/10/04 02:17:27;;;;;;;6.53;3.22;;;;;;;9.57;100.00;98124.41;1749213;79;21566;-85
2022/10/04 02:19:53;;;;;;;8.65;2.55;;;;;;;9.53;100.00;98130.91;1755618;81;21011;-85
2022/10/04 02:22:37;;;;;;;8.35;3.50;;;;;;;9.53;100.00;98126.04;1756477;80;21766;-87
2022/10/04 02:25:04;;;;;;;7.72;2.95;;;;;;;9.53;100.00;98126.04;1766786;80;21067;-86
2022/10/04 02:27:30;;;;;;;8.28;4.17;;;;;;;9.52;100.00;98127.13;1766657;79;21358;-84
2022/10/04 02:30:07;;;;;;;8.60;3.58;;;;;;;9.54;100.00;98129.02;1780720;80;21012;-87
2022/10/04 02:33:04;;;;;;;14.38;2.95;;;;;;;9.54;100.00;98126.30;1759334;80;21058;-86
2022/10/04 02:35:37;;;;;;;9.85;3.92;;;;;;;9.56;100.00;98127.66;1756501;81;22111;-84
2022/10/04 02:38:30;;;;;;;11.75;4.05;;;;;;;9.57;100.00;98137.41;1819989;78;21001;-86
2022/10/04 02:53:56;;;;;;;9.78;3.33;;;;;;;9.50;100.00;98119.28;1778987;79;21003;-80
2022/10/04 03:55:16;;;;;;;5.45;2.70;;;;;;;9.02;100.00;98136.78;1740756;82;21297;-84
2022/10/04 03:57:48;;;;;;;6.50;2.60;;;;;;;8.98;100.00;98125.70;1718150;81;21045;-84
2022/10/04 04:00:17;;;;;;;20.92;10.03;;;;;;;8.96;100.00;98126.48;1741561;80;20880;-84
2022/10/04 04:02:57;;;;;;;8.33;4.08;;;;;;;8.95;100.00;98130.81;1769763;80;21010;-84
2022/10/04 04:05:32;;;;;;;6.33;3.20;;;;;;;8.93;100.00;98124.87;1772087;80;22037;-84
2022/10/04 04:08:08;;;;;;;8.95;3.42;;;;;;;8.89;100.00;98123.79;1740421;80;21149;-84
2022/10/04 04:10:37;;;;;;;11.80;3.12;;;;;;;8.86;100.00;98135.92;1743745;80;21094;-84
2022/10/04 04:13:14;;;;;;;9.38;3.98;;;;;;;8.91;100.00;98135.95;1759756;80;26598;-84
2022/10/04 04:15:42;;;;;;;9.78;3.08;;;;;;;8.93;100.00;98136.48;1749537;80;21031;-84
2022/10/04 04:18:16;;;;;;;7.75;3.62;;;;;;;8.96;100.00;98135.94;1753914;81;21403;-84
2022/10/04 04:20:42;;;;;;;8.53;3.67;;;;;;;9.04;100.00;98134.61;1743721;80;21082;-84
2022/10/04 04:23:24;;;;;;;8.08;3.20;;;;;;;9.06;100.00;98129.78;1749345;81;20978;-84
2022/10/04 04:25:54;;;;;;;12.07;3.92;;;;;;;9.09;100.00;98132.48;1742187;81;21014;-84
2022/10/04 04:28:47;;;;;;;6.17;3.70;;;;;;;9.10;100.00;98132.75;1739196;80;21027;-84
2022/10/04 04:31:36;;;;;;;9.08;3.60;;;;;;;9.15;100.00;98152.50;1726919;81;21840;-84
2022/10/04 04:34:07;;;;;;;9.33;2.83;;;;;;;9.16;100.00;98135.74;1709569;83;21047;-84
2022/10/04 04:36:40;;;;;;;13.22;2.80;;;;;;;9.12;100.00;98130.58;1757397;79;21547;-84
2022/10/04 04:39:33;;;;;;;6.85;2.90;;;;;;;9.07;100.00;98144.11;1710144;83;21027;-84
2022/10/04 04:42:15;;;;;;;6.00;2.60;;;;;;;9.02;100.00;98151.64;1757468;80;21474;-84
2022/10/04 04:44:55;;;;;;;9.85;3.02;;;;;;;8.99;100.00;98161.11;1750821;81;21024;-84
2022/10/04 04:47:40;;;;;;;5.53;2.72;;;;;;;8.99;100.00;98161.11;1749919;81;21156;-84
2022/10/04 04:50:15;;;;;;;4.08;2.55;;;;;;;8.92;100.00;98166.48;1750904;80;21048;-83
2022/10/04 04:52:49;;;;;;;12.90;3.60;;;;;;;8.89;100.00;98171.89;1711186;83;21579;-84
2022/10/04 04:55:21;;;;;;;5.20;3.12;;;;;;;8.88;100.00;98178.89;1753195;80;21040;-84
2022/10/04 04:57:48;;;;;;;15.53;6.70;;;;;;;8.76;100.00;98175.88;1753192;80;21857;-84
2022/10/04 05:00:19;;;;;;;14.60;7.33;;;;;;;8.78;100.00;98186.42;1714314;82;21054;-84
2022/10/04 05:02:55;;;;;;;10.68;8.25;;;;;;;8.76;100.00;98181.28;1751732;80;21490;-83
2022/10/04 05:05:27;;;;;;;18.60;9.48;;;;;;;8.82;100.00;98188.07;1724012;81;21012;-83
2022/10/04 05:08:22;;;;;;;12.65;6.65;;;;;;;8.87;100.00;98186.72;1713269;82;21317;-84
2022/10/04 05:11:04;;;;;;;12.68;3.90;;;;;;;8.89;100.00;98190.00;1735219;80;21195;-84
2022/10/04 05:13:50;;;;;;;14.65;3.98;;;;;;;9.00;100.00;98192.46;1728262;81;21386;-84
2022/10/04 05:16:26;;;;;;;11.15;5.05;;;;;;;9.00;100.00;98192.46;1708739;81;21051;-84
2022/10/04 05:19:05;;;;;;;15.85;6.28;;;;;;;9.11;100.00;98201.41;1756209;80;21029;-84
2022/10/04 05:21:33;;;;;;;12.10;4.83;;;;;;;9.15;100.00;98204.41;1687140;85;21630;-84
2022/10/04 05:24:16;;;;;;;11.60;5.65;;;;;;;9.17;100.00;98204.95;1690683;82;21516;-84
2022/10/04 05:26:42;;;;;;;9.23;5.17;;;;;;;9.19;100.00;98206.30;1674784;83;21429;-84
2022/10/04 05:29:13;;;;;;;10.53;4.65;;;;;;;9.29;100.00;98208.22;1701216;83;20924;-83
2022/10/04 05:32:03;;;;;;;11.05;5.30;;;;;;;9.35;100.00;98215.81;1695278;83;21043;-84
2022/10/04 05:34:34;;;;;;;9.23;4.87;;;;;;;9.39;100.00;98222.30;1690633;81;21515;-84
2022/10/04 05:37:24;;;;;;;12.63;4.80;;;;;;;9.45;100.00;98221.24;1695285;81;21290;-84
2022/10/04 05:39:58;;;;;;;7.50;4.17;;;;;;;9.46;100.00;98220.97;1696299;83;22085;-84
2022/10/04 05:42:38;;;;;;;11.45;4.33;;;;;;;9.51;100.00;98226.41;1689530;83;21094;-84
2022/10/04 05:45:22;;;;;;;10.23;4.80;;;;;;;9.58;100.00;98239.14;1750430;79;20998;-84
2022/10/04 05:47:53;;;;;;;9.55;4.33;;;;;;;9.56;100.00;98233.16;1741475;80;21492;-83
2022/10/04 05:50:39;;;;;;;17.73;4.80;;;;;;;9.64;100.00;98244.54;1754416;80;21043;-84
2022/10/04 05:53:34;;;;;;;7.08;3.40;;;;;;;9.66;100.00;98239.16;1745546;79;21059;-84
2022/10/04 05:56:50;;;;;;;7.00;3.12;;;;;;;9.73;100.00;98241.03;1715813;81;21087;-84
2022/10/04 05:59:44;;;;;;;16.60;4.30;;;;;;;9.77;100.00;98239.97;1733925;81;21619;-84
2022/10/04 06:02:53;;;;;;;11.63;4.72;;;;;;;9.79;100.00;98244.56;1710691;80;21558;-84
2022/10/04 06:05:54;;;;;;;8.53;4.30;;;;;;;9.83;100.00;98249.73;1726174;80;21563;-84
2022/10/04 06:09:02;;;;;;;9.60;4.00;;;;;;;9.81;100.00;98258.64;1759972;79;20969;-84
2022/10/04 06:11:46;;;;;;;7.20;3.50;;;;;;;9.81;100.00;98266.22;1736337;81;21127;-84
2022/10/04 06:14:47;;;;;;;10.38;3.27;;;;;;;9.80;100.00;98277.31;1714421;80;21018;-84
2022/10/04 06:17:51;;;;;;;8.13;3.02;;;;;;;9.78;100.00;98274.06;1724619;80;21030;-84
2022/10/04 06:20:47;;;;;;;7.60;2.75;;;;;;;9.75;100.00;98273.27;1736898;80;21153;-84
2022/10/04 06:23:17;;;;;;;13.15;3.25;;;;;;;9.72;100.00;98277.30;1732600;81;21068;-84
2022/10/04 06:25:58;;;;;;;12.13;3.33;;;;;;;9.75;100.00;98280.03;1733237;81;21044;-84
2022/10/04 06:28:32;;;;;;;9.35;3.35;;;;;;;9.72;100.00;98278.65;1697489;82;21979;-84
2022/10/04 06:31:23;;;;;;;9.43;4.00;;;;;;;9.72;100.00;98284.06;1746203;81;21575;-84
2022/10/04 06:34:13;;;;;;;6.60;3.12;;;;;;;9.86;100.00;98288.43;1745586;81;21232;-84
2022/10/04 06:37:11;;;;;;;9.85;3.00;;;;;;;9.95;100.00;98281.95;1739439;80;21402;-84
2022/10/04 06:40:05;;;;;;;13.58;4.00;;;;;;;10.03;100.00;98280.06;1746393;80;20984;-84
2022/10/04 06:42:55;;;;;;;10.72;4.08;;;;;;;10.06;100.00;98289.80;1749415;80;20979;-84
2022/10/04 06:45:38;;;;;;;5.72;2.45;;;;;;;10.09;100.00;98297.40;1745730;81;21047;-85
2022/10/04 06:48:43;;;;;;;6.15;1.95;;;;;;;10.12;100.00;98288.73;1722836;80;21104;-85
2022/10/04 06:51:27;;;;;;;7.53;2.22;;;;;;;10.18;100.00;98296.32;1747073;80;20990;-85
2022/10/04 06:54:33;;;;;;;5.20;3.00;;;;;;;10.36;100.00;98302.58;1747125;80;21007;-85
2022/10/04 06:57:31;;;;;;;6.22;2.05;;;;;;;10.51;100.00;98304.99;1695741;82;21047;-84
2022/10/04 07:00:14;;;;;;;9.40;2.67;;;;;;;10.52;100.00;98301.22;1691792;83;21035;-85
2022/10/04 07:02:49;;;;;;;8.88;2.55;;;;;;;10.39;100.00;98308.80;1696330;83;21198;-85
2022/10/04 07:05:41;;;;;;;6.10;2.52;;;;;;;10.35;100.00;98315.86;1700156;81;20986;-84
2022/10/04 07:08:29;;;;;;;7.12;2.55;;;;;;;10.23;100.00;98315.84;1720653;80;21117;-84
2022/10/04 07:10:51;;;;;;;7.67;2.22;;;;;;;10.21;100.00;98329.63;1724494;80;21118;-84
2022/10/04 07:13:22;;;;;;;8.85;2.65;;;;;;;10.16;100.00;98332.31;1722346;80;21155;-84
2022/10/04 07:16:13;;;;;;;4.58;2.42;;;;;;;10.05;100.00;98343.67;1722915;80;21467;-85
2022/10/04 07:19:07;;;;;;;13.28;3.67;;;;;;;9.94;100.00;98340.69;1733455;81;20979;-84
2022/10/04 07:21:38;;;;;;;18.30;3.52;;;;;;;9.88;100.00;98352.58;1696924;81;21377;-85
2022/10/04 07:24:05;;;;;;;4.20;2.50;;;;;;;9.80;100.00;98349.84;1743981;79;21089;-85
2022/10/04 07:26:47;;;;;;;8.73;3.37;;;;;;;10.61;100.00;98341.05;1746200;79;21550;-84
2022/10/04 07:29:23;;;;;;;9.65;3.12;;;;;;;11.93;95.89;98341.20;1739692;80;21145;-85
2022/10/04 07:32:10;;;;;;;5.35;2.20;;;;;;;13.32;97.39;98341.67;1738364;80;21046;-85
2022/10/04 07:34:53;;;;;;;9.28;2.72;;;;;;;12.77;90.25;98358.25;1728055;79;20988;-84
2022/10/04 07:37:19;;;;;;;9.55;3.08;;;;;;;12.22;91.73;98350.81;1746500;80;21131;-85
2022/10/04 07:40:08;;;;;;;10.00;2.65;;;;;;;11.80;91.90;98358.12;1702727;82;20959;-85
2022/10/04 07:42:45;;;;;;;11.70;4.42;;;;;;;11.50;92.94;98358.47;1719469;81;22359;-84
2022/10/04 07:45:32;;;;;;;8.83;2.00;;;;;;;11.28;94.28;98346.63;1722350;80;21019;-84
2022/10/04 07:48:21;;;;;;;4.85;3.42;;;;;;;11.34;94.94;98349.30;1726527;80;21025;-84
2022/10/04 07:51:08;;;;;;;7.53;2.70;;;;;;;11.50;95.58;98356.30;1754116;80;21047;-84
2022/10/04 07:53:45;;;;;;;7.30;3.00;;;;;;;11.43;95.87;98357.95;1719935;81;21401;-85
2022/10/04 07:56:28;;;;;;;8.05;3.10;;;;;;;11.24;95.44;98354.22;1729530;80;21385;-84
2022/10/04 07:59:24;;;;;;;6.47;2.80;;;;;;;11.45;96.40;98356.31;1704878;82;21095;-85
2022/10/04 08:02:05;;;;;;;5.95;2.33;;;;;;;11.40;96.06;98360.42;1756118;80;21030;-84
2022/10/04 08:04:49;;;;;;;6.30;2.72;;;;;;;11.47;95.92;98370.44;1725488;79;21156;-83
2022/10/04 08:07:23;;;;;;;10.82;2.90;;;;;;;11.53;96.37;98374.19;1714296;81;21055;-84
2022/10/04 08:10:12;;;;;;;11.68;3.02;;;;;;;11.40;95.23;98376.70;1755235;80;21686;-85
2022/10/04 08:13:07;;;;;;;9.93;2.65;;;;;;;11.52;94.72;98373.11;1708668;82;21202;-84
2022/10/04 08:15:38;;;;;;;6.50;2.25;;;;;;;11.59;94.72;98377.70;1686560;82;21463;-85
2022/10/04 08:18:42;;;;;;;10.38;3.45;;;;;;;11.64;94.84;98376.89;1702768;83;21152;-84
2022/10/04 08:21:11;;;;;;;9.65;2.98;;;;;;;11.67;94.06;98380.39;1679882;83;21008;-85
2022/10/04 08:23:52;;;;;;;;;;;;;;;11.65;94.12;98382.03;1718228;80;22290;-85
2022/10/04 08:26:36;;;;;;;9.68;2.60;;;;;;;11.69;94.07;98383.09;1718018;81;20265;-83
2022/10/04 08:29:51;;;;;;;4.37;2.50;;;;;;;11.91;94.88;98389.55;1719192;81;21040;-85
2022/10/04 08:33:00;;;;;;;6.50;3.55;;;;;;;11.83;93.07;98384.70;1710827;81;21855;-84
2022/10/04 08:35:35;;;;;;;;;;;;;;;11.92;92.90;98394.44;1750299;79;21053;-84
2022/10/04 08:38:34;;;;;;;7.70;2.85;;;;;;;11.80;91.01;98393.41;1749029;80;21097;-85
2022/10/04 08:41:25;;;;;;;11.63;2.47;;;;;;;11.76;91.35;98399.09;1700760;82;21459;-85
2022/10/04 08:44:28;;;;;;;6.83;2.58;;;;;;;11.81;91.42;98405.89;1714245;81;21114;-84
2022/10/04 08:47:33;;;;;;;8.20;2.47;;;;;;;11.87;91.91;98400.69;1750712;80;20954;-84
2022/10/04 08:50:25;;;;;;;6.28;2.30;;;;;;;11.93;91.08;98408.28;1749412;80;21704;-86
2022/10/04 08:53:29;;;;;;;6.15;2.40;;;;;;;11.91;91.20;98403.13;1748812;80;21844;-85
2022/10/04 08:56:34;;;;;;;8.30;2.22;;;;;;;11.84;89.79;98402.06;1743600;80;21085;-84
2022/10/04 08:59:34;;;;;;;7.55;1.80;;;;;;;11.90;90.96;98396.08;1737021;80;21526;-85
2022/10/04 09:02:28;;;;;;;9.93;5.00;;;;;;;11.80;91.49;98400.20;1740744;80;21071;-84
2022/10/04 09:05:27;;;;;;;7.20;4.40;;;;;;;11.64;90.07;98405.39;1736805;80;21018;-84
2022/10/04 09:08:16;;;;;;;10.00;3.35;;;;;;;11.65;92.21;98405.11;1737291;80;21101;-83
2022/10/04 09:11:19;;;;;;;10.08;4.25;;;;;;;11.61;91.32;98417.59;1707925;82;21067;-85
2022/10/04 09:14:23;;;;;;;5.83;3.67;;;;;;;11.31;91.52;98418.50;1718192;80;21789;-84
2022/10/04 09:17:18;;;;;;;4.58;2.45;;;;;;;11.22;92.32;98423.67;1736119;80;22176;-84
2022/10/04 09:20:01;;;;;;;10.85;2.67;;;;;;;11.13;93.24;98427.22;1750298;79;21242;-85
2022/10/04 09:22:55;;;;;;;7.35;2.67;;;;;;;11.39;93.66;98426.62;1693265;81;21061;-84
2022/10/04 09:25:44;;;;;;;7.05;3.10;;;;;;;11.65;93.57;98439.58;1738887;79;21114;-84
2022/10/04 09:28:51;;;;;;;9.23;3.50;;;;;;;11.82;93.42;98435.48;1753341;79;21083;-84
2022/10/04 09:31:39;;;;;;;10.78;3.95;;;;;;;11.89;92.66;98443.34;1732127;80;22261;-85
2022/10/04 09:34:30;;;;;;;6.42;2.70;;;;;;;11.98;91.89;98442.21;1732756;80;21028;-85
2022/10/04 09:37:19;;;;;;;7.60;2.90;;;;;;;12.10;92.89;98440.78;1693747;81;21065;-85
2022/10/04 09:40:40;;;;;;;7.58;3.05;;;;;;;12.28;92.93;98441.23;1769075;79;21008;-85
2022/10/04 09:43:29;;;;;;;7.33;2.40;;;;;;;12.47;90.48;98445.47;1741989;79;21498;-83
2022/10/04 09:46:15;;;;;;;9.73;2.95;;;;;;;12.77;91.49;98446.63;1733255;81;21182;-85
2022/10/04 09:48:56;;;;;;;6.97;2.40;;;;;;;13.02;90.79;98445.62;1727695;80;21041;-84
2022/10/04 09:52:03;;;;;;;6.08;2.33;;;;;;;13.19;86.01;98448.76;1709767;80;21465;-86
2022/10/04 09:54:59;;;;;;;3.83;2.17;;;;;;;13.42;86.97;98443.11;1750537;79;21110;-86
2022/10/04 09:57:48;;;;;;;6.15;2.30;;;;;;;13.31;82.95;98447.55;1733608;80;21074;-85
2022/10/04 10:00:24;;;;;;;6.50;2.25;;;;;;;13.41;83.26;98446.09;1737845;80;22057;-84
2022/10/04 10:03:08;;;;;;;5.60;1.87;;;;;;;13.58;84.12;98443.73;1739388;80;21567;-84
2022/10/04 10:06:20;;;;;;;6.40;2.52;;;;;;;13.77;85.61;98439.73;1735558;79;21082;-85
2022/10/04 10:16:01;;;;;;;5.12;2.20;;;;;;;13.30;81.59;98446.75;1731960;80;21098;-84
2022/10/04 10:19:00;;;;;;;7.83;3.87;;;;;;;12.87;83.41;98455.25;1737848;80;21519;-84
2022/10/04 10:21:38;;;;;;;;;;;;;;;12.69;85.39;98458.10;1754506;80;21090;-85
2022/10/04 10:24:08;;;;;;;;;;;;;;;12.56;86.47;98459.56;1748981;80;20323;-84
2022/10/04 10:27:24;;;;;;;5.28;2.72;;;;;;;12.41;87.07;98474.05;1759090;79;20209;-84
2022/10/04 10:30:17;;;;;;;6.72;2.33;;;;;;;12.36;86.95;98472.70;1732641;80;21042;-84
2022/10/04 10:33:37;;;;;;;5.85;2.72;;;;;;;12.23;87.42;98474.69;1743913;79;21027;-84
2022/10/04 10:36:24;;;;;;;4.97;2.77;;;;;;;12.24;87.64;98484.47;1740719;79;21133;-84
2022/10/04 10:39:33;;;;;;;5.65;2.10;;;;;;;12.24;88.07;98483.66;1728919;80;21060;-85
2022/10/04 10:42:13;;;;;;;11.38;4.87;;;;;;;12.38;88.65;98484.65;1714526;80;21036;-85
2022/10/04 10:45:16;;;;;;;8.70;3.05;;;;;;;12.60;87.90;98486.44;1715964;80;21107;-85
2022/10/04 10:47:58;;;;;;;7.00;2.92;;;;;;;12.68;87.86;98491.83;1709853;80;21084;-86
2022/10/04 10:51:04;;;;;;;8.73;2.62;;;;;;;12.89;88.32;98494.66;1744316;80;21189;-85
2022/10/04 10:54:28;;;;;;;12.78;3.55;;;;;;;13.02;87.33;98482.89;1716574;80;21137;-85
2022/10/04 10:57:26;;;;;;;8.73;2.83;;;;;;;13.09;87.33;98477.94;1747686;79;20953;-86
2022/10/04 11:00:22;;;;;;;3.40;1.70;;;;;;;13.42;86.80;98483.13;1745556;81;20971;-86
2022/10/04 11:03:16;;;;;;;5.00;1.85;;;;;;;13.88;84.25;98481.28;1744889;79;21115;-85
2022/10/04 11:06:00;;;;;;;5.80;1.92;;;;;;;14.01;86.28;98483.29;1725729;82;21146;-86
2022/10/04 11:09:04;;;;;;;8.70;2.98;;;;;;;13.81;83.01;98474.26;1750865;81;20967;-84
2022/10/04 11:12:22;;;;;;;5.17;2.08;;;;;;;13.57;84.76;98484.31;1687633;83;21110;-84
2022/10/04 11:14:54;;;;;;;7.20;2.07;;;;;;;13.61;83.37;98485.93;1680139;83;21041;-84
2022/10/04 11:17:59;;;;;;;5.03;2.05;;;;;;;13.68;83.76;98487.77;1688064;81;21157;-84
2022/10/04 11:21:03;;;;;;;8.08;2.72;;;;;;;13.85;82.94;98491.41;1723197;80;21901;-84
2022/10/04 11:23:51;;;;;;;6.85;2.50;;;;;;;13.72;82.61;98496.42;1747375;79;21157;-84
2022/10/04 11:26:48;;;;;;;5.62;2.75;;;;;;;13.63;82.47;98502.23;1739929;80;21397;-85
2022/10/04 11:29:31;;;;;;;12.35;4.87;;;;;;;13.54;82.97;98501.23;1725768;81;21094;-85
2022/10/04 11:32:08;;;;;;;9.65;2.92;;;;;;;13.46;83.42;98493.69;1736987;80;21080;-85
2022/10/04 11:35:25;;;;;;;5.37;2.35;;;;;;;13.38;83.25;98505.20;1743963;80;21181;-85
2022/10/04 11:38:16;;;;;;;4.55;1.95;;;;;;;13.33;82.44;98504.70;1743107;80;21117;-85
2022/10/04 11:41:15;;;;;;;6.35;2.60;;;;;;;13.32;82.58;98503.61;1744071;80;21084;-84
2022/10/04 11:44:13;;;;;;;;;;;;;;;13.45;83.74;98498.33;1752901;80;21055;-85
2022/10/04 11:46:54;;;;;;;4.35;1.70;;;;;;;13.64;83.51;98494.88;1715507;80;20173;-85
2022/10/04 11:49:43;;;;;;;2.33;1.32;;;;;;;13.64;82.52;98503.05;1749827;80;21151;-84
2022/10/04 11:52:45;;;;;;;5.50;1.85;;;;;;;13.59;80.81;98507.16;1753110;80;21030;-85
2022/10/04 11:55:45;;;;;;;4.90;2.37;;;;;;;13.35;78.76;98512.58;1747903;80;21010;-85
2022/10/04 11:58:39;;;;;;;3.30;1.67;;;;;;;13.26;79.30;98510.47;1689069;83;21075;-86
2022/10/04 12:01:37;;;;;;;5.60;1.40;;;;;;;13.21;78.57;98512.41;1710339;82;22201;-85
2022/10/04 12:04:36;;;;;;;5.50;2.20;;;;;;;13.34;79.42;98505.52;1678859;81;21432;-84
2022/10/04 12:07:41;;;;;;;2.60;1.22;;;;;;;13.34;79.42;98505.52;1710234;81;21421;-84
2022/10/04 12:10:37;;;;;;;3.35;1.65;;;;;;;13.47;79.13;98504.84;1732073;80;21184;-85
2022/10/04 12:13:34;;;;;;;6.47;2.83;;;;;;;13.45;73.20;98507.85;1744057;79;21038;-85
2022/10/04 12:16:28;;;;;;;13.35;6.67;;;;;;;13.53;76.40;98502.34;1756295;80;21562;-84
2022/10/04 12:19:31;;;;;;;8.25;3.77;;;;;;;13.65;75.29;98500.58;1714013;81;21185;-85
2022/10/04 12:22:30;;;;;;;2.70;1.32;;;;;;;13.96;76.85;98503.80;1754641;80;21129;-85
2022/10/04 12:25:41;;;;;;;2.72;1.60;;;;;;;14.11;74.65;98498.17;1693234;80;21097;-85
2022/10/04 12:28:49;;;;;;;3.15;1.42;;;;;;;14.37;75.33;98499.48;1741244;79;20971;-84
2022/10/04 12:31:28;;;;;;;4.03;1.57;;;;;;;14.43;72.49;98512.47;1740731;80;21319;-85
2022/10/04 12:34:18;;;;;;;7.50;2.10;;;;;;;14.39;72.84;98506.80;1738680;80;21111;-86
2022/10/04 12:37:19;;;;;;;3.30;1.50;;;;;;;14.36;74.28;98506.04;1741451;79;21594;-84
2022/10/04 12:40:03;;;;;;;4.47;2.20;;;;;;;14.27;75.03;98504.23;1748802;79;22033;-84
2022/10/04 12:43:08;;;;;;;3.47;1.40;;;;;;;14.10;72.56;98505.55;1728241;80;21041;-84
2022/10/04 12:45:55;;;;;;;5.83;2.15;;;;;;;13.86;73.61;98514.27;1729981;81;21117;-83
2022/10/04 12:48:39;;;;;;;4.15;2.05;;;;;;;13.52;74.70;98511.06;1730140;81;21697;-84
2022/10/04 12:51:28;;;;;;;5.75;1.92;;;;;;;13.35;75.71;98516.66;1741449;79;21041;-85
2022/10/04 12:54:12;;;;;;;;;;;;;;;13.27;76.79;98515.37;1760662;80;21022;-85
2022/10/04 12:57:06;;;;;;;4.28;2.85;;;;;;;13.11;77.39;98514.64;1757083;79;20564;-85
2022/10/04 12:59:59;;;;;;;3.87;1.90;;;;;;;13.07;78.17;98523.64;1758927;79;21105;-85
2022/10/04 13:02:53;;;;;;;7.30;1.87;;;;;;;13.09;79.02;98524.19;1739032;80;21801;-85
2022/10/04 13:05:47;;;;;;;6.17;1.62;;;;;;;13.10;78.70;98527.17;1713721;79;21084;-85
2022/10/04 13:08:56;;;;;;;8.93;2.70;;;;;;;13.12;78.09;98538.58;1739607;80;21032;-85
2022/10/04 13:11:59;;;;;;;6.00;1.75;;;;;;;13.17;77.58;98533.92;1753606;79;21222;-84
2022/10/04 13:15:10;;;;;;;8.30;2.02;;;;;;;13.02;76.71;98534.02;1758031;79;21090;-84
2022/10/04 13:17:50;;;;;;;5.55;2.00;;;;;;;12.99;77.81;98540.86;1749412;80;21876;-84
2022/10/04 13:21:00;;;;;;;3.33;1.77;;;;;;;12.86;78.11;98544.73;1752534;80;21057;-83
2022/10/04 13:23:54;;;;;;;12.68;2.12;;;;;;;12.74;78.89;98542.38;1733823;80;21556;-84
2022/10/04 13:26:28;;;;;;;18.57;10.93;;;;;;;12.68;79.43;98546.20;1760432;79;21046;-84
2022/10/04 13:29:23;;;;;;;11.18;5.60;;;;;;;12.73;79.00;98548.06;1753300;80;21033;-85
2022/10/04 13:32:06;;;;;;;4.35;3.22;;;;;;;12.77;78.11;98549.95;1755259;80;21977;-85
2022/10/04 13:34:52;;;;;;;6.35;2.25;;;;;;;12.92;77.90;98553.14;1737730;80;21002;-84
2022/10/04 13:37:29;;;;;;;5.37;2.37;;;;;;;12.98;77.69;98548.72;1757901;80;21082;-85
2022/10/04 13:40:21;;;;;;;11.10;3.15;;;;;;;13.07;76.41;98552.20;1760388;80;21042;-85
2022/10/04 13:42:55;;;;;;;5.05;2.40;;;;;;;13.12;77.43;98554.91;1755142;80;21490;-84
2022/10/04 13:45:55;;;;;;;6.30;2.70;;;;;;;13.20;76.68;98556.50;1755201;80;21590;-85
2022/10/04 13:48:41;;;;;;;8.95;3.20;;;;;;;13.19;75.01;98549.44;1750882;80;21057;-85
2022/10/04 13:51:28;;;;;;;6.87;2.92;;;;;;;13.16;74.35;98549.14;1753298;80;21461;-85
2022/10/04 13:57:29;;;;;;;5.33;2.47;;;;;;;13.31;76.62;98552.34;1748859;80;21067;-85
2022/10/04 14:00:05;;;;;;;7.15;2.30;;;;;;;13.39;76.92;98549.01;1746560;80;21638;-85
2022/10/04 14:03:00;;;;;;;5.35;2.12;;;;;;;13.41;76.92;98543.53;1754890;80;21070;-86
2022/10/04 14:05:57;;;;;;;6.33;2.12;;;;;;;13.41;75.67;98550.34;1754960;80;21090;-83
2022/10/04 14:09:13;;;;;;;5.55;2.20;;;;;;;13.39;75.35;98550.37;1757028;80;21085;-85
2022/10/04 14:12:06;;;;;;;6.75;1.80;;;;;;;13.34;72.66;98558.59;1738266;80;21035;-84
2022/10/04 14:15:13;;;;;;;4.70;1.80;;;;;;;13.38;73.87;98556.91;1762523;80;21054;-84
2022/10/04 14:18:22;;;;;;;6.55;2.60;;;;;;;13.35;71.52;98561.58;1757536;80;21090;-85
2022/10/04 14:21:24;;;;;;;5.22;2.22;;;;;;;13.35;70.83;98566.47;1750694;80;21054;-86
2022/10/04 14:24:22;;;;;;;6.00;2.00;;;;;;;13.39;70.52;98564.78;1763953;80;21464;-85